Time,TemperatureF,DewpointF,PressureIn,WindDirection,WindDirectionDegrees,WindSpeedMPH,WindSpeedGustMPH,Humidity,HourlyPrecipIn,Conditions,Clouds,dailyrainin,SoftwareType,DateUTC
2014-10-01 01:00:00,52.0,-99.9,30.00,North,-999,0.0,-999.0,-999,-99.99,,,-99.99,,2014-10-01 08:00:00,
2014-10-01 01:22:00,52.0,-99.9,30.00,North,-999,0.0,-999.0,-999,-99.99,,,-99.99,,2014-10-01 08:22:00,
2014-10-01 01:33:00,52.0,-99.9,30.00,North,-999,0.0,-999.0,-999,-99.99,,,-99.99,,2014-10-01 08:33:00,
2014-10-01 01:42:00,52.0,-99.9,30.00,North,-999,0.0,-999.0,-999,-99.99,,,-99.99,,2014-10-01 08:42:00,
2014-10-01 01:53:00,52.0,-99.9,30.00,North,-999,0.0,-999.0,-999,-99.99,,,-99.99,,2014-10-01 08:53:00,
2014-10-01 02:00:00,51.0,-99.9,30.00,ESE,112,5.0,-999.0,-999,-99.99,,,-99.99,,2014-10-01 09:00:00,
2014-10-01 02:22:00,51.0,-99.9,30.00,ESE,112,5.0,-999.0,-999,-99.99,,,-99.99,,2014-10-01 09:22:00,
2014-10-01 02:34:00,51.0,-99.9,30.00,ESE,112,5.0,-999.0,-999,-99.99,,,-99.99,,2014-10-01 09:34:00,
2014-10-01 02:44:00,51.0,-99.9,30.00,ESE,112,5.0,-999.0,-999,-99.99,,,-99.99,,2014-10-01 09:44:00,
2014-10-01 02:54:00,51.0,-99.9,30.00,ESE,112,5.0,-999.0,-999,-99.99,,,-99.99,,2014-10-01 09:54:00,
2014-10-01 03:00:00,51.0,-99.9,30.00,North,-999,0.0,-999.0,-999,-99.99,,,-99.99,,2014-10-01 10:00:00,
2014-10-01 03:23:00,51.0,-99.9,30.00,North,-999,0.0,-999.0,-999,-99.99,,,-99.99,,2014-10-01 10:23:00,
2014-10-01 03:33:00,51.0,-99.9,30.00,North,-999,0.0,-999.0,-999,-99.99,,,-99.99,,2014-10-01 10:33:00,
2014-10-01 03:43:00,51.0,-99.9,30.00,North,-999,0.0,-999.0,-999,-99.99,,,-99.99,,2014-10-01 10:43:00,
2014-10-01 03:53:00,51.0,-99.9,30.00,North,-999,0.0,-999.0,-999,-99.99,,,-99.99,,2014-10-01 10:53:00,
2014-10-01 04:00:00,50.0,-99.9,30.00,South,180,5.0,-999.0,-999,-99.99,,,-99.99,,2014-10-01 11:00:00,
2014-10-01 04:23:00,50.0,-99.9,30.00,South,180,5.0,-999.0,-999,-99.99,,,-99.99,,2014-10-01 11:23:00,
2014-10-01 04:33:00,50.0,-99.9,30.00,South,180,5.0,-999.0,-999,-99.99,,,-99.99,,2014-10-01 11:33:00,
2014-10-01 04:42:00,50.0,-99.9,30.00,South,180,5.0,-999.0,-999,-99.99,,,-99.99,,2014-10-01 11:42:00,
2014-10-01 04:53:00,50.0,-99.9,30.00,South,180,5.0,-999.0,-999,-99.99,,,-99.99,,2014-10-01 11:53:00,
2014-10-01 05:00:00,50.0,-99.9,30.01,North,-999,0.0,-999.0,-999,-99.99,,,-99.99,,2014-10-01 12:00:00,
2014-10-01 05:22:00,50.0,-99.9,30.01,North,-999,0.0,-999.0,-999,-99.99,,,-99.99,,2014-10-01 12:22:00,
2014-10-01 05:32:00,50.0,-99.9,30.01,North,-999,0.0,-999.0,-999,-99.99,,,-99.99,,2014-10-01 12:32:00,
2014-10-01 05:42:00,50.0,-99.9,30.01,North,-999,0.0,-999.0,-999,-99.99,,,-99.99,,2014-10-01 12:42:00,
2014-10-01 05:53:00,50.0,-99.9,30.01,North,-999,0.0,-999.0,-999,-99.99,,,-99.99,,2014-10-01 12:53:00,
2014-10-01 06:00:00,47.0,-99.9,30.01,North,-999,0.0,-999.0,-999,-99.99,,,-99.99,,2014-10-01 13:00:00,
2014-10-01 06:22:00,47.0,-99.9,30.01,North,-999,0.0,-999.0,-999,-99.99,,,-99.99,,2014-10-01 13:22:00,
2014-10-01 06:32:00,47.0,-99.9,30.01,North,-999,0.0,-999.0,-999,-99.99,,,-99.99,,2014-10-01 13:32:00,
2014-10-01 06:43:00,47.0,-99.9,30.01,North,-999,0.0,-999.0,-999,-99.99,,,-99.99,,2014-10-01 13:43:00,
2014-10-01 06:53:00,47.0,-99.9,30.01,North,-999,0.0,-999.0,-999,-99.99,,,-99.99,,2014-10-01 13:53:00,
2014-10-01 07:00:00,48.0,-99.9,30.00,North,-999,0.0,-999.0,-999,-99.99,,,-99.99,,2014-10-01 14:00:00,
2014-10-01 07:23:00,48.0,-99.9,30.00,North,-999,0.0,-999.0,-999,-99.99,,,-99.99,,2014-10-01 14:23:00,
2014-10-01 07:32:00,48.0,-99.9,30.00,North,-999,0.0,-999.0,-999,-99.99,,,-99.99,,2014-10-01 14:32:00,
2014-10-01 07:43:00,48.0,-99.9,30.00,North,-999,0.0,-999.0,-999,-99.99,,,-99.99,,2014-10-01 14:43:00,
2014-10-01 07:52:00,48.0,-99.9,30.00,North,-999,0.0,-999.0,-999,-99.99,,,-99.99,,2014-10-01 14:52:00,
2014-10-01 08:00:00,49.0,-99.9,30.01,North,-999,0.0,-999.0,-999,-99.99,,,-99.99,,2014-10-01 15:00:00,
2014-10-01 08:23:00,49.0,-99.9,30.01,North,-999,0.0,-999.0,-999,-99.99,,,-99.99,,2014-10-01 15:23:00,
2014-10-01 08:34:00,49.0,-99.9,30.01,North,-999,0.0,-999.0,-999,-99.99,,,-99.99,,2014-10-01 15:34:00,
2014-10-01 08:44:00,49.0,-99.9,30.01,North,-999,0.0,-999.0,-999,-99.99,,,-99.99,,2014-10-01 15:44:00,
2014-10-01 08:54:00,49.0,-99.9,30.01,North,-999,0.0,-999.0,-999,-99.99,,,-99.99,,2014-10-01 15:54:00,
2014-10-01 09:00:00,53.0,-99.9,30.01,North,-999,0.0,-999.0,-999,-99.99,,,-99.99,,2014-10-01 16:00:00,
2014-10-01 09:24:00,53.0,-99.9,30.01,North,-999,0.0,-999.0,-999,-99.99,,,-99.99,,2014-10-01 16:24:00,
2014-10-01 09:34:00,53.0,-99.9,30.01,North,-999,0.0,-999.0,-999,-99.99,,,-99.99,,2014-10-01 16:34:00,
2014-10-01 09:44:00,53.0,-99.9,30.01,North,-999,0.0,-999.0,-999,-99.99,,,-99.99,,2014-10-01 16:44:00,
2014-10-01 09:54:00,53.0,-99.9,30.01,North,-999,0.0,-999.0,-999,-99.99,,,-99.99,,2014-10-01 16:54:00,
2014-10-01 10:00:00,58.0,-99.9,30.00,East,90,3.0,-999.0,-999,-99.99,,,-99.99,,2014-10-01 17:00:00,
2014-10-01 10:23:00,58.0,-99.9,30.00,East,90,3.0,-999.0,-999,-99.99,,,-99.99,,2014-10-01 17:23:00,
2014-10-01 10:34:00,58.0,-99.9,30.00,East,90,3.0,-999.0,-999,-99.99,,,-99.99,,2014-10-01 17:34:00,
2014-10-01 10:43:00,58.0,-99.9,30.00,East,90,3.0,-999.0,-999,-99.99,,,-99.99,,2014-10-01 17:43:00,
2014-10-01 10:54:00,58.0,-99.9,30.00,East,90,3.0,-999.0,-999,-99.99,,,-99.99,,2014-10-01 17:54:00,
2014-10-01 11:00:00,63.0,-99.9,30.00,NW,315,7.0,-999.0,-999,-99.99,,,-99.99,,2014-10-01 18:00:00,
2014-10-01 11:22:00,63.0,-99.9,30.00,NW,315,7.0,-999.0,-999,-99.99,,,-99.99,,2014-10-01 18:22:00,
2014-10-01 11:33:00,63.0,-99.9,30.00,NW,315,7.0,-999.0,-999,-99.99,,,-99.99,,2014-10-01 18:33:00,
2014-10-01 11:43:00,63.0,-99.9,30.00,NW,315,7.0,-999.0,-999,-99.99,,,-99.99,,2014-10-01 18:43:00,
2014-10-01 11:53:00,63.0,-99.9,30.00,NW,315,7.0,-999.0,-999,-99.99,,,-99.99,,2014-10-01 18:53:00,
2014-10-01 12:00:00,65.0,-99.9,29.99,NNE,22,7.0,-999.0,-999,-99.99,,,-99.99,,2014-10-01 19:00:00,
2014-10-01 12:22:00,65.0,-99.9,29.99,NNE,22,7.0,-999.0,-999,-99.99,,,-99.99,,2014-10-01 19:22:00,
2014-10-01 12:32:00,65.0,-99.9,29.99,NNE,22,7.0,-999.0,-999,-99.99,,,-99.99,,2014-10-01 19:32:00,
2014-10-01 12:43:00,65.0,-99.9,29.99,NNE,22,7.0,-999.0,-999,-99.99,,,-99.99,,2014-10-01 19:43:00,
2014-10-01 12:53:00,65.0,-99.9,29.99,NNE,22,7.0,-999.0,-999,-99.99,,,-99.99,,2014-10-01 19:53:00,
2014-10-01 13:00:00,66.0,-99.9,29.98,NNE,22,13.0,-999.0,-999,-99.99,,,-99.99,,2014-10-01 20:00:00,
2014-10-01 13:23:00,66.0,-99.9,29.98,NNE,22,13.0,-999.0,-999,-99.99,,,-99.99,,2014-10-01 20:23:00,
2014-10-01 13:33:00,66.0,-99.9,29.98,NNE,22,13.0,-999.0,-999,-99.99,,,-99.99,,2014-10-01 20:33:00,
2014-10-01 13:43:00,66.0,-99.9,29.98,NNE,22,13.0,-999.0,-999,-99.99,,,-99.99,,2014-10-01 20:43:00,
2014-10-01 13:53:00,66.0,-99.9,29.98,NNE,22,13.0,-999.0,-999,-99.99,,,-99.99,,2014-10-01 20:53:00,
2014-10-01 14:00:00,65.0,-99.9,29.96,North,360,12.0,-999.0,-999,-99.99,,,-99.99,,2014-10-01 21:00:00,
2014-10-01 14:22:00,65.0,-99.9,29.96,North,360,12.0,-999.0,-999,-99.99,,,-99.99,,2014-10-01 21:22:00,
2014-10-01 14:34:00,65.0,-99.9,29.96,North,360,12.0,-999.0,-999,-99.99,,,-99.99,,2014-10-01 21:34:00,
2014-10-01 14:44:00,65.0,-99.9,29.96,North,360,12.0,-999.0,-999,-99.99,,,-99.99,,2014-10-01 21:44:00,
2014-10-01 14:54:00,65.0,-99.9,29.96,North,360,12.0,-999.0,-999,-99.99,,,-99.99,,2014-10-01 21:54:00,
2014-10-01 15:00:00,64.0,-99.9,29.96,North,360,9.0,-999.0,-999,-99.99,,,-99.99,,2014-10-01 22:00:00,
2014-10-01 15:23:00,64.0,-99.9,29.96,North,360,9.0,-999.0,-999,-99.99,,,-99.99,,2014-10-01 22:23:00,
2014-10-01 15:33:00,64.0,-99.9,29.96,North,360,9.0,-999.0,-999,-99.99,,,-99.99,,2014-10-01 22:33:00,
2014-10-01 15:42:00,64.0,-99.9,29.96,North,360,9.0,-999.0,-999,-99.99,,,-99.99,,2014-10-01 22:42:00,
2014-10-01 15:54:00,64.0,-99.9,29.96,North,360,9.0,-999.0,-999,-99.99,,,-99.99,,2014-10-01 22:54:00,
2014-10-01 16:00:00,63.0,-99.9,29.98,North,360,14.0,-999.0,-999,-99.99,,,-99.99,,2014-10-01 23:00:00,
2014-10-01 16:22:00,63.0,-99.9,29.98,North,360,14.0,-999.0,-999,-99.99,,,-99.99,,2014-10-01 23:22:00,
2014-10-01 16:33:00,63.0,-99.9,29.98,North,360,14.0,-999.0,-999,-99.99,,,-99.99,,2014-10-01 23:33:00,
2014-10-01 16:43:00,63.0,-99.9,29.98,North,360,14.0,-999.0,-999,-99.99,,,-99.99,,2014-10-01 23:43:00,
2014-10-01 16:53:00,63.0,-99.9,29.98,North,360,14.0,-999.0,-999,-99.99,,,-99.99,,2014-10-01 23:53:00,
2014-10-01 17:22:00,64.0,-99.9,29.98,North,360,12.0,-999.0,-999,-99.99,,,-99.99,,2014-10-02 00:22:00,
2014-10-01 17:32:00,64.0,-99.9,29.98,North,360,12.0,-999.0,-999,-99.99,,,-99.99,,2014-10-02 00:32:00,
2014-10-01 17:42:00,64.0,-99.9,29.98,North,360,12.0,-999.0,-999,-99.99,,,-99.99,,2014-10-02 00:42:00,
2014-10-01 17:52:00,64.0,-99.9,29.98,North,360,12.0,-999.0,-999,-99.99,,,-99.99,,2014-10-02 00:52:00,